createdAt,value
2019-02-25T05:03:57.070Z,2.790833
2019-02-25T05:07:25.059Z,2.861328
2019-02-25T05:10:52.970Z,2.941895
2019-02-25T05:14:20.921Z,3.022461
2019-02-25T05:17:49.090Z,3.052673
2019-02-25T05:21:18.024Z,3.113098
2019-02-25T05:24:46.009Z,3.143311
2019-02-25T05:28:14.025Z,3.143311
2019-02-25T05:31:41.965Z,3.143311
2019-02-25T05:35:10.873Z,3.143311
2019-02-25T05:38:38.831Z,3.123169
2019-02-25T05:42:06.939Z,3.082886
2019-02-25T05:45:34.980Z,3.002319
2019-02-25T05:49:03.839Z,2.941895
2019-02-25T05:52:31.777Z,2.861328
2019-02-25T05:55:59.899Z,2.810974
2019-02-25T05:59:27.771Z,2.680054
2019-02-25T06:02:56.824Z,2.720337
2019-02-25T06:06:24.879Z,2.690125
2019-02-25T06:09:52.938Z,2.750549
2019-02-25T06:13:20.812Z,2.780762
2019-02-25T06:16:48.764Z,2.76062
2019-02-25T06:20:16.775Z,2.750549
2019-02-25T06:23:44.689Z,2.659912
2019-02-25T06:27:12.688Z,2.569275
2019-02-25T06:30:40.774Z,2.599487
2019-02-25T06:34:09.191Z,2.609558
2019-02-25T06:37:38.121Z,2.498779
2019-02-25T06:41:06.059Z,2.569275
2019-02-25T06:44:33.969Z,2.609558
2019-02-25T06:48:02.026Z,2.599487
2019-02-25T06:51:30.916Z,2.609558
2019-02-25T06:54:58.820Z,2.528992
2019-02-25T06:58:27.823Z,2.50885
2019-02-25T07:01:55.906Z,2.498779
2019-02-25T07:05:23.735Z,2.50885
2019-02-25T07:08:51.689Z,2.539062
2019-02-25T07:12:19.626Z,2.539062
2019-02-25T07:15:47.835Z,2.468567
2019-02-25T07:19:15.817Z,2.539062
2019-02-25T07:22:43.765Z,2.569275
2019-02-25T07:26:12.777Z,2.579346
2019-02-25T07:29:41.646Z,2.710266
2019-02-25T07:33:09.612Z,2.861328
2019-02-25T07:36:37.735Z,2.750549
2019-02-25T07:40:05.574Z,2.750549
2019-02-25T07:43:33.497Z,2.720337
2019-02-25T07:47:01.420Z,2.821045
2019-02-25T07:50:29.342Z,2.810974
2019-02-25T07:53:57.238Z,2.911682
2019-02-25T07:57:25.156Z,2.871399
2019-02-25T08:00:53.244Z,2.901611
2019-02-25T08:04:21.135Z,3.002319
2019-02-25T08:07:50.119Z,2.941895
2019-02-25T08:11:18.041Z,3.072815
2019-02-25T08:14:46.954Z,3.002319
2019-02-25T08:18:14.868Z,3.092957
2019-02-25T08:21:42.857Z,3.123169
2019-02-25T08:25:10.769Z,3.223877
2019-02-25T08:28:38.752Z,3.304443
2019-02-25T08:32:06.660Z,3.405151
2019-02-25T08:35:35.684Z,3.304443
2019-02-25T08:39:03.556Z,3.364868
2019-02-25T08:42:31.444Z,3.405151
2019-02-25T08:45:59.527Z,3.485718
2019-02-25T08:49:27.535Z,3.626709
2019-02-25T08:52:55.651Z,3.717346
2019-02-25T08:56:23.621Z,3.918762
2019-02-25T08:59:51.534Z,3.979187
2019-02-25T09:03:20.613Z,4.089966
2019-02-25T09:06:48.526Z,3.918762
2019-02-25T09:10:16.515Z,4.120178
2019-02-25T09:13:45.413Z,4.261169
2019-02-25T09:17:13.645Z,4.432373
2019-02-25T09:20:42.630Z,4.64386
2019-02-25T09:24:10.610Z,4.613647
2019-02-25T09:27:38.675Z,4.714355
2019-02-25T09:31:06.715Z,4.845276
2019-02-25T09:34:34.702Z,4.966125
2019-02-25T09:38:02.608Z,5.107117
2019-02-25T09:41:30.507Z,5.368958
2019-02-25T09:44:58.602Z,5.1474
2019-02-25T09:48:26.580Z,5.26825
2019-02-25T09:51:54.465Z,5.318604
2019-02-25T09:55:23.596Z,5.439453
2019-02-25T09:58:52.017Z,5.620728
2019-02-25T10:02:19.507Z,5.77179
2019-02-25T10:05:48.611Z,5.983276
2019-02-25T10:09:16.512Z,6.245117
2019-02-25T10:12:47.447Z,6.486816
2019-02-25T10:16:15.369Z,7.211914
2019-02-25T10:19:43.313Z,7.866516
2019-02-25T10:23:11.296Z,8.208923
2019-02-25T10:26:39.199Z,8.370056
2019-02-25T10:30:07.373Z,8.309631
2019-02-25T10:33:35.290Z,7.735596
2019-02-25T10:37:03.242Z,7.614746
2019-02-25T10:40:34.207Z,7.685242
2019-02-25T10:44:02.633Z,8.380127
2019-02-25T10:47:32.975Z,10.484924
2019-02-25T10:51:07.034Z,11.461792
2019-02-25T10:54:37.660Z,12.549438
2019-02-25T10:58:06.688Z,13.596802
2019-02-25T11:01:34.585Z,13.536377
2019-02-25T11:05:08.465Z,13.536377
2019-02-25T11:08:37.305Z,12.911987
2019-02-25T11:12:09.066Z,12.378235
2019-02-25T11:15:38.025Z,12.901917
2019-02-25T11:19:09.983Z,12.549438
2019-02-25T11:22:39.726Z,13.294678
2019-02-25T11:26:11.154Z,13.858643
2019-02-25T11:29:40.325Z,13.546448
2019-02-25T11:33:11.919Z,13.57666
2019-02-25T11:36:40.103Z,14.402466
2019-02-25T11:40:08.944Z,13.908997
2019-02-25T11:43:36.912Z,13.717651
2019-02-25T11:47:07.874Z,13.425598
2019-02-25T11:50:36.903Z,13.82843
2019-02-25T11:54:05.816Z,13.757935
2019-02-25T11:57:33.786Z,14.190979
2019-02-25T12:01:02.904Z,13.647156
2019-02-25T12:04:31.030Z,14.221191
2019-02-25T12:07:58.987Z,13.526306
2019-02-25T12:11:26.916Z,13.677368
2019-02-25T12:14:55.839Z,13.747864
2019-02-25T12:18:24.305Z,13.294678
2019-02-25T12:21:52.200Z,13.113403
2019-02-25T12:25:20.584Z,13.546448
2019-02-25T12:28:48.453Z,13.929138
2019-02-25T12:32:16.442Z,13.969421
2019-02-25T12:35:44.550Z,13.82843
2019-02-25T12:39:13.448Z,14.039917
2019-02-25T12:42:42.636Z,14.231262
2019-02-25T12:46:10.770Z,14.412537
2019-02-25T12:49:38.927Z,14.775085
2019-02-25T12:53:06.892Z,14.33197
2019-02-25T12:56:35.897Z,14.120483
2019-02-25T13:00:03.937Z,13.455811
2019-02-25T13:03:31.928Z,13.959351
2019-02-25T13:06:59.935Z,14.090271
2019-02-25T13:10:27.979Z,13.526306
2019-02-25T13:13:56.081Z,13.19397
2019-02-25T13:17:24.115Z,13.536377
2019-02-25T13:20:52.069Z,13.667297
2019-02-25T13:24:20.061Z,13.44574
2019-02-25T13:27:49.086Z,13.486023
2019-02-25T13:31:23.021Z,13.596802
2019-02-25T13:34:52.300Z,13.848572
2019-02-25T13:38:20.415Z,13.979492
2019-02-25T13:41:48.310Z,13.757935
2019-02-25T13:45:16.332Z,13.465881
2019-02-25T13:48:44.234Z,12.770996
2019-02-25T13:52:12.195Z,12.720642
2019-02-25T13:55:40.159Z,13.022766
2019-02-25T13:59:08.157Z,13.042908
2019-02-25T14:02:36.066Z,12.126465
2019-02-25T14:06:04.054Z,12.609863
2019-02-25T14:09:32.097Z,13.012695
2019-02-25T14:13:00.034Z,12.861633
2019-02-25T14:16:29.052Z,12.277527
2019-02-25T14:19:57.016Z,12.126465
2019-02-25T14:23:25.123Z,11.925049
2019-02-25T14:26:54.428Z,12.106323
2019-02-25T14:30:22.095Z,12.227173
2019-02-25T14:33:52.298Z,12.126465
2019-02-25T14:37:20.084Z,11.94519
2019-02-25T14:40:49.264Z,11.592712
2019-02-25T14:44:19.968Z,11.17981
2019-02-25T14:47:55.285Z,11.089172
2019-02-25T14:51:26.922Z,11.038818
2019-02-25T14:54:55.871Z,10.948181
2019-02-25T14:58:31.307Z,10.605774
2019-02-25T15:02:04.586Z,10.565491
2019-02-25T15:05:35.856Z,10.394287
2019-02-25T15:09:05.472Z,10.213013
2019-02-25T15:12:38.359Z,10.172729
2019-02-25T15:16:06.809Z,9.900818
2019-02-25T15:19:36.434Z,9.810181
2019-02-25T15:23:07.354Z,9.80011
2019-02-25T15:26:42.778Z,9.779968
2019-02-25T15:30:09.528Z,9.628906
2019-02-25T15:33:40.321Z,9.256287
2019-02-25T15:37:09.490Z,9.135437
2019-02-25T15:40:39.389Z,8.964233
2019-02-25T15:44:08.607Z,8.863525
2019-02-25T15:47:38.378Z,8.752747
2019-02-25T15:51:10.237Z,8.631897
2019-02-25T15:54:39.785Z,8.531189
2019-02-25T15:58:09.364Z,8.561401
2019-02-25T16:01:37.333Z,8.500977
2019-02-25T16:05:05.851Z,8.490906
2019-02-25T16:08:35.174Z,8.531189
2019-02-25T16:12:03.749Z,8.410339
2019-02-25T16:15:34.057Z,8.259277
2019-02-25T16:19:05.549Z,8.198853
2019-02-25T16:22:34.573Z,8.198853
2019-02-25T16:26:05.456Z,8.057861
2019-02-25T16:29:38.421Z,7.856445
2019-02-25T16:33:09.377Z,7.826233
2019-02-25T16:36:38.458Z,7.705383
2019-02-25T16:40:10.536Z,7.644958
2019-02-25T16:43:38.221Z,7.584534
2019-02-25T16:47:07.861Z,7.604675
2019-02-25T16:50:43.396Z,7.54425
2019-02-25T16:54:13.376Z,7.584534
2019-02-25T16:57:47.756Z,7.574463
2019-02-25T17:01:15.161Z,7.493896
2019-02-25T17:04:43.176Z,7.403259
2019-02-25T17:08:12.553Z,7.423401
2019-02-25T17:11:42.091Z,7.423401
2019-02-25T17:15:11.271Z,7.362976
2019-02-25T17:18:39.275Z,7.332764
2019-02-25T17:22:09.143Z,7.252197
2019-02-25T17:25:38.859Z,7.221985
2019-02-25T17:29:08.116Z,7.221985
2019-02-25T17:32:37.830Z,7.191772
2019-02-25T17:36:12.202Z,7.151489
2019-02-25T17:39:41.321Z,7.111206
2019-02-25T17:43:10.755Z,7.04071
2019-02-25T17:46:43.347Z,7.000427
2019-02-25T17:50:12.183Z,6.919861
2019-02-25T17:53:40.239Z,6.919861
2019-02-25T17:57:14.167Z,6.90979
2019-02-25T18:00:42.549Z,6.859436
2019-02-25T18:04:10.826Z,6.78894
2019-02-25T18:07:39.875Z,6.708374
2019-02-25T18:11:11.209Z,6.637878
2019-02-25T18:14:45.792Z,6.627808
2019-02-25T18:18:17.639Z,6.567383
2019-02-25T18:21:47.246Z,6.557312
2019-02-25T18:25:15.161Z,6.547241
2019-02-25T18:28:45.861Z,6.517029
2019-02-25T18:32:17.445Z,6.446533
2019-02-25T18:35:45.697Z,6.426392
2019-02-25T18:39:13.693Z,6.446533
2019-02-25T18:42:43.643Z,6.396179
2019-02-25T18:46:12.741Z,6.365967
2019-02-25T18:49:43.686Z,6.305542
2019-02-25T18:53:16.534Z,6.245117
2019-02-25T18:56:49.251Z,6.235046
2019-02-25T19:00:18.339Z,6.214905
2019-02-25T19:03:52.602Z,6.164551
2019-02-25T19:07:25.041Z,6.094055
2019-02-25T19:10:57.234Z,6.063843
2019-02-25T19:14:26.433Z,6.063843
2019-02-25T19:17:56.970Z,6.02356
2019-02-25T19:21:25.473Z,6.003418
2019-02-25T19:24:56.852Z,5.983276
2019-02-25T19:28:28.045Z,5.953064
2019-02-25T19:32:00.384Z,5.942993
2019-02-25T19:35:28.629Z,5.912781
2019-02-25T19:39:04.867Z,5.872498
2019-02-25T19:42:36.426Z,5.872498
2019-02-25T19:46:08.632Z,5.852356
2019-02-25T19:49:38.930Z,5.852356
2019-02-25T19:53:11.840Z,5.852356
2019-02-25T19:56:44.224Z,5.77179
2019-02-25T20:00:17.671Z,5.751648
2019-02-25T20:03:52.159Z,5.701294
2019-02-25T20:07:25.767Z,5.671082
2019-02-25T20:10:57.027Z,5.661011
2019-02-25T20:14:25.877Z,5.620728
2019-02-25T20:17:55.497Z,5.590515
2019-02-25T20:21:24.950Z,5.590515
2019-02-25T20:24:57.643Z,5.590515
2019-02-25T20:28:25.111Z,5.610657
2019-02-25T20:31:55.746Z,5.580444
2019-02-25T20:35:26.769Z,5.620728
2019-02-25T20:38:55.739Z,5.580444
2019-02-25T20:42:24.468Z,5.550232
2019-02-25T20:45:56.348Z,5.509949
2019-02-25T20:49:31.773Z,5.540161
2019-02-25T20:53:02.935Z,5.509949
2019-02-25T20:56:33.302Z,5.550232
2019-02-25T21:00:04.168Z,5.509949
2019-02-25T21:03:36.020Z,5.580444
2019-02-25T21:07:10.864Z,5.590515
2019-02-25T21:10:39.083Z,5.65094
2019-02-25T21:14:08.029Z,5.661011
2019-02-25T21:17:37.835Z,5.65094
2019-02-25T21:21:07.653Z,5.661011
2019-02-25T21:24:39.198Z,5.65094
2019-02-25T21:28:09.022Z,5.671082
2019-02-25T21:31:37.219Z,5.671082
2019-02-25T21:35:11.160Z,5.671082
2019-02-25T21:38:39.192Z,5.671082
2019-02-25T21:42:11.150Z,5.751648
2019-02-25T21:45:46.560Z,5.761719
2019-02-25T21:49:23.292Z,5.802002
2019-02-25T21:52:54.334Z,5.822144
2019-02-25T21:56:23.124Z,5.822144
2019-02-25T21:59:54.085Z,5.842285
2019-02-25T22:03:26.433Z,5.872498
2019-02-25T22:06:56.289Z,5.882568
2019-02-25T22:10:26.361Z,5.912781
2019-02-25T22:13:57.320Z,5.942993
2019-02-25T22:17:25.231Z,5.983276
2019-02-25T22:20:53.233Z,6.03363
2019-02-25T22:24:24.659Z,6.063843
2019-02-25T22:27:56.521Z,6.094055
2019-02-25T22:31:32.277Z,6.094055
2019-02-25T22:35:07.343Z,6.094055
2019-02-25T22:38:38.344Z,6.094055
2019-02-25T22:42:07.779Z,6.083984
2019-02-25T22:45:39.690Z,6.063843
2019-02-25T22:49:09.449Z,6.083984
2019-02-25T22:52:37.372Z,6.083984
2019-02-25T22:56:08.914Z,6.053772
2019-02-25T22:59:39.966Z,6.063843
